Time;durP1;ratioP1;P1;durP2;ratioP2;P2;SDS_P1;SDS_P2;PMS_P1;PMS_P2;Temp;Humidity;BMP_temperature;BMP_pressure;BME280_temperature;BME280_humidity;BME280_pressure;Samples;Min_cycle;Max_cycle;Signal;HPM_P1;HPM_P2
2023/10/15 00:00:26;;;;;;;;;;;;;;;10.07;68.96;100150.59;1086320;54;1039;-78
2023/10/15 00:01:29;;;;;;;;;;;;;;;10.05;68.82;100152.59;1086116;47;1036;-78
2023/10/15 00:02:31;;;;;;;;;;;;;;;10.01;69.02;100154.69;1085783;54;1513;-79
2023/10/15 00:03:35;;;;;;;;;;;;;;;9.95;69.39;100156.09;1086221;54;1134;-80
2023/10/15 00:04:36;;;;;;;;;;;;;;;9.96;69.31;100159.59;1086254;54;1202;-79
2023/10/15 00:05:39;;;;;;;;;;;;;;;9.98;69.36;100157.63;1086297;46;1318;-78
2023/10/15 00:06:41;;;;;;;;;;;;;;;9.90;69.68;100160.97;1086201;54;1112;-78
2023/10/15 00:07:41;;;;;;;;;;;;;;;9.96;69.41;100162.25;1086517;54;1152;-78
2023/10/15 00:08:45;;;;;;;;;;;;;;;9.96;69.42;100156.91;1086340;54;1868;-79
2023/10/15 00:09:45;;;;;;;;;;;;;;;9.90;69.90;100157.47;1086453;46;1546;-79
2023/10/15 00:10:48;;;;;;;;;;;;;;;9.90;70.01;100157.47;1086223;54;1389;-79
2023/10/15 00:11:52;;;;;;;;;;;;;;;9.96;70.05;100164.94;1086015;47;1492;-78
2023/10/15 00:12:56;;;;;;;;;;;;;;;9.92;69.85;100164.38;1086230;47;1099;-78
2023/10/15 00:13:56;;;;;;;;;;;;;;;9.94;70.17;100156.19;1086385;54;1046;-79
2023/10/15 00:14:59;;;;;;;;;;;;;;;9.94;70.04;100156.19;1085982;47;1317;-78
2023/10/15 00:16:00;;;;;;;;;;;;;;;9.96;69.75;100159.59;1086202;54;1089;-79
2023/10/15 00:17:05;;;;;;;;;;;;;;;9.96;69.75;100160.44;1085993;47;995;-78
2023/10/15 00:18:09;;;;;;;;;;;;;;;10.00;69.48;100150.31;1085956;47;1100;-79
2023/10/15 00:19:13;;;;;;;;;;;;;;;9.96;69.64;100155.09;1086092;54;1364;-78
2023/10/15 00:20:16;;;;;;;;;;;;;;;9.99;69.83;100151.31;1086175;47;1027;-79
2023/10/15 00:21:20;;;;;;;;;;;;;;;9.99;69.53;100153.97;1086276;47;1167;-80
2023/10/15 00:22:22;;;;;;;;;;;;;;;10.04;69.43;100151.72;1086082;54;1079;-79
2023/10/15 00:23:25;;;;;;;;;;;;;;;10.05;69.34;100155.25;1086322;46;1380;-79
2023/10/15 00:24:26;;;;;;;;;;;;;;;10.08;69.24;100155.81;1086077;54;1118;-80
2023/10/15 00:25:34;;;;;;;;;;;;;;;10.13;69.06;100155.41;1086291;54;1374;-79
2023/10/15 00:26:35;;;;;;;;;;;;;;;10.11;69.16;100162.69;1086044;46;1043;-79
2023/10/15 00:27:41;;;;;;;;;;;;;;;10.11;69.16;100155.50;1086008;47;1548;-81
2023/10/15 00:28:44;;;;;;;;;;;;;;;10.19;68.88;100151.31;1085951;47;1877;-79
2023/10/15 00:29:48;;;;;;;;;;;;;;;10.22;68.80;100156.38;1085775;47;996;-78
2023/10/15 00:30:48;;;;;;;;;;;;;;;10.24;68.50;100152.59;1085777;54;1618;-79
2023/10/15 00:31:52;;;;;;;;;;;;;;;10.27;68.56;100149.63;1085702;54;1024;-79
2023/10/15 00:32:54;;;;;;;;;;;;;;;10.30;68.41;100151.16;1085289;54;1512;-79
2023/10/15 00:33:57;;;;;;;;;;;;;;;10.32;68.35;100151.88;1085550;54;1171;-79
2023/10/15 00:34:57;;;;;;;;;;;;;;;10.28;68.05;100150.50;1085920;54;1399;-79
2023/10/15 00:36:04;;;;;;;;;;;;;;;10.19;68.58;100144.16;1085585;54;1106;-79
2023/10/15 00:37:05;;;;;;;;;;;;;;;10.18;68.56;100144.28;1085875;54;1138;-79
2023/10/15 00:38:12;;;;;;;;;;;;;;;10.15;68.90;100148.94;1086019;54;1056;-79
2023/10/15 00:39:20;;;;;;;;;;;;;;;10.20;68.58;100145.84;1085911;47;985;-80
2023/10/15 00:40:23;;;;;;;;;;;;;;;10.25;68.74;100154.25;1085900;47;964;-81
2023/10/15 00:41:24;;;;;;;;;;;;;;;10.29;68.54;100146.84;1086063;54;1177;-80
2023/10/15 00:42:30;;;;;;;;;;;;;;;10.31;68.55;100144.84;1085726;47;1063;-79
2023/10/15 00:43:33;;;;;;;;;;;;;;;10.26;68.94;100147.09;1085935;54;1459;-79
2023/10/15 00:44:36;;;;;;;;;;;;;;;10.31;68.72;100144.84;1085575;54;1106;-79
2023/10/15 00:45:43;;;;;;;;;;;;;;;10.32;68.77;100143.88;1085277;47;1239;-79
2023/10/15 00:46:54;;;;;;;;;;;;;;;10.32;68.83;100143.88;1085334;54;1493;-78
2023/10/15 00:48:02;;;;;;;;;;;;;;;10.33;68.44;100150.91;1085121;54;1170;-78
2023/10/15 00:49:11;;;;;;;;;;;;;;;10.36;68.13;100141.75;1085395;54;1852;-79
2023/10/15 00:50:14;;;;;;;;;;;;;;;10.38;68.01;100146.03;1085552;47;1098;-78
2023/10/15 00:51:20;;;;;;;;;;;;;;;10.39;68.28;100141.50;1084945;47;1154;-78
2023/10/15 00:52:20;;;;;;;;;;;;;;;10.38;67.91;100138.00;1085488;54;1007;-78
2023/10/15 00:53:26;;;;;;;;;;;;;;;10.41;68.09;100142.22;1085235;54;1094;-79
2023/10/15 00:54:27;;;;;;;;;;;;;;;10.41;67.87;100137.69;1085114;47;1027;-78
2023/10/15 00:55:35;;;;;;;;;;;;;;;10.37;67.74;100138.09;1084875;54;1419;-79
2023/10/15 00:56:36;;;;;;;;;;;;;;;10.37;67.70;100130.97;1084789;54;1134;-78
2023/10/15 00:57:46;;;;;;;;;;;;;;;10.35;67.71;100132.91;1085791;54;1055;-78
2023/10/15 00:59:08;;;;;;;;;;;;;;;10.37;67.65;100128.31;1084981;54;1159;-78
2023/10/15 01:00:37;;;;;;;;;;;;;;;10.40;67.42;100125.31;1085849;47;1029;-80
2023/10/15 01:01:38;;;;;;;;;;;;;;;10.40;67.25;100132.50;1086184;46;1069;-78
2023/10/15 01:02:44;;;;;;;;;;;;;;;10.42;67.10;100131.38;1086814;54;1090;-79
2023/10/15 01:03:48;;;;;;;;;;;;;;;10.43;67.30;100125.03;1086350;46;1048;-79
2023/10/15 01:04:58;;;;;;;;;;;;;;;10.45;67.03;100120.41;1086783;47;1323;-79
2023/10/15 01:06:04;;;;;;;;;;;;;;;10.48;67.00;100126.47;1086504;54;1423;-79
2023/10/15 01:07:27;;;;;;;;;;;;;;;10.45;66.68;100128.44;1086403;47;1051;-79
2023/10/15 01:08:34;;;;;;;;;;;;;;;10.52;66.75;100127.84;1086615;47;1040;-79
2023/10/15 01:09:38;;;;;;;;;;;;;;;10.53;66.97;100121.53;1086614;54;1884;-79
2023/10/15 01:10:39;;;;;;;;;;;;;;;10.54;66.53;100118.69;1086749;54;988;-79
2023/10/15 01:11:44;;;;;;;;;;;;;;;10.42;67.04;100112.66;1086818;46;1034;-78
2023/10/15 01:12:44;;;;;;;;;;;;;;;10.32;67.41;100117.13;1086838;47;1004;-79
2023/10/15 01:13:48;;;;;;;;;;;;;;;10.27;67.35;100119.41;1087309;54;1138;-79
2023/10/15 01:14:51;;;;;;;;;;;;;;;10.24;67.82;100117.00;1087588;47;1369;-79
2023/10/15 01:16:02;;;;;;;;;;;;;;;10.19;67.69;100121.94;1087559;47;1169;-80
2023/10/15 01:17:02;;;;;;;;;;;;;;;10.15;67.75;100121.38;1087326;54;1012;-79
2023/10/15 01:18:07;;;;;;;;;;;;;;;10.12;68.12;100121.66;1087112;47;1154;-79
2023/10/15 01:19:16;;;;;;;;;;;;;;;10.13;67.96;100113.50;1086955;47;1150;-80
2023/10/15 01:20:30;;;;;;;;;;;;;;;10.11;68.09;100119.97;1088137;46;925;-80
2023/10/15 01:21:32;;;;;;;;;;;;;;;10.02;67.96;100126.16;1088522;47;1035;-80
2023/10/15 01:22:35;;;;;;;;;;;;;;;9.99;68.36;100119.25;1088404;47;1019;-79
2023/10/15 01:23:44;;;;;;;;;;;;;;;9.98;68.32;100117.56;1088273;46;1037;-80
2023/10/15 01:24:53;;;;;;;;;;;;;;;9.95;68.28;100116.03;1087604;47;1429;-80
2023/10/15 01:25:57;;;;;;;;;;;;;;;9.93;68.47;100111.78;1086903;47;991;-79
2023/10/15 01:27:08;;;;;;;;;;;;;;;9.92;68.54;100107.44;1087417;54;1345;-80
2023/10/15 01:28:11;;;;;;;;;;;;;;;9.95;68.65;100110.69;1087209;54;1153;-80
2023/10/15 01:29:19;;;;;;;;;;;;;;;9.92;68.56;100110.13;1087490;54;1865;-79
2023/10/15 01:30:20;;;;;;;;;;;;;;;9.94;68.61;100113.47;1087790;54;938;-79
2023/10/15 01:31:24;;;;;;;;;;;;;;;9.93;68.56;100107.31;1087804;54;1497;-81
2023/10/15 01:32:25;;;;;;;;;;;;;;;9.91;68.79;100109.25;1087898;54;880;-80
2023/10/15 01:33:27;;;;;;;;;;;;;;;9.90;68.65;100107.56;1087784;54;911;-79
2023/10/15 01:34:37;;;;;;;;;;;;;;;9.92;68.60;100120.81;1087779;54;941;-78
2023/10/15 01:35:38;;;;;;;;;;;;;;;9.92;68.51;100110.13;1087727;54;1381;-79
2023/10/15 01:36:42;;;;;;;;;;;;;;;9.93;68.60;100109.13;1087556;47;971;-79
2023/10/15 01:37:57;;;;;;;;;;;;;;;9.93;68.34;100106.44;1087710;54;1023;-80
2023/10/15 01:39:09;;;;;;;;;;;;;;;9.93;68.65;100112.66;1087936;47;1133;-79
2023/10/15 01:40:36;;;;;;;;;;;;;;;9.94;68.19;100108.13;1087773;47;907;-79
2023/10/15 01:41:42;;;;;;;;;;;;;;;9.95;68.50;100112.50;1087811;54;1003;-78
2023/10/15 01:42:43;;;;;;;;;;;;;;;9.94;68.34;100111.66;1087703;54;1086;-79
2023/10/15 01:43:49;;;;;;;;;;;;;;;9.90;68.28;100120.91;1087764;54;1102;-79
2023/10/15 01:44:49;;;;;;;;;;;;;;;9.93;68.23;100115.31;1087637;54;1302;-79
2023/10/15 01:45:57;;;;;;;;;;;;;;;9.89;68.36;100115.72;1087806;54;1032;-78
2023/10/15 01:47:08;;;;;;;;;;;;;;;9.96;68.27;100119.53;1087866;47;984;-79
2023/10/15 01:48:24;;;;;;;;;;;;;;;9.91;68.33;100119.94;1087694;46;1016;-79
2023/10/15 01:49:31;;;;;;;;;;;;;;;9.91;68.39;100124.44;1087749;54;1838;-80
2023/10/15 01:50:43;;;;;;;;;;;;;;;9.87;68.69;100123.84;1087584;47;1050;-79
2023/10/15 01:51:46;;;;;;;;;;;;;;;9.87;68.87;100117.69;1087694;47;965;-80
2023/10/15 01:52:50;;;;;;;;;;;;;;;9.88;68.89;100120.22;1087814;54;926;-79
2023/10/15 01:53:51;;;;;;;;;;;;;;;9.87;69.03;100121.19;1087603;47;887;-79
2023/10/15 01:54:55;;;;;;;;;;;;;;;9.95;68.48;100125.84;1087527;54;1408;-79
2023/10/15 01:56:02;;;;;;;;;;;;;;;9.94;68.99;100132.16;1087731;47;1027;-79
2023/10/15 01:57:06;;;;;;;;;;;;;;;9.92;69.21;100123.47;1087242;54;1064;-79
2023/10/15 01:58:12;;;;;;;;;;;;;;;9.93;69.01;100120.66;1087745;54;1067;-79
2023/10/15 01:59:16;;;;;;;;;;;;;;;9.98;69.07;100126.41;1087653;47;1060;-79
2023/10/15 02:00:32;;;;;;;;;;;;;;;9.98;68.87;100126.41;1087515;54;979;-79
2023/10/15 02:01:37;;;;;;;;;;;;;;;9.92;69.26;100120.81;1087603;54;1007;-80
2023/10/15 02:02:38;;;;;;;;;;;;;;;9.88;69.57;100124.72;1086220;54;1042;-78
2023/10/15 02:03:39;;;;;;;;;;;;;;;9.87;69.25;100118.53;1086084;54;1121;-78
2023/10/15 02:04:47;;;;;;;;;;;;;;;9.83;69.70;100119.78;1086372;47;1638;-78
2023/10/15 02:05:47;;;;;;;;;;;;;;;9.84;69.95;100118.81;1086359;54;1070;-78
2023/10/15 02:06:51;;;;;;;;;;;;;;;9.81;69.94;100119.94;1086646;47;982;-77
2023/10/15 02:07:51;;;;;;;;;;;;;;;9.82;69.91;100126.13;1086469;47;1098;-78
2023/10/15 02:08:56;;;;;;;;;;;;;;;9.88;69.67;100122.88;1086754;47;1618;-78
2023/10/15 02:09:56;;;;;;;;;;;;;;;9.91;69.58;100119.13;1085933;47;1941;-78
2023/10/15 02:11:11;;;;;;;;;;;;;;;9.95;69.71;100123.19;1086298;47;1089;-78
2023/10/15 02:12:12;;;;;;;;;;;;;;;9.93;69.44;100117.13;1086620;54;1062;-79
2023/10/15 02:13:19;;;;;;;;;;;;;;;9.97;69.53;100126.56;1086448;54;1388;-78
2023/10/15 02:14:22;;;;;;;;;;;;;;;9.95;69.47;100128.50;1086829;47;1015;-77
2023/10/15 02:15:22;;;;;;;;;;;;;;;9.88;69.76;100120.22;1086911;54;1342;-79
2023/10/15 02:16:29;;;;;;;;;;;;;;;9.92;70.06;100126.16;1086980;54;1027;-78
2023/10/15 02:17:33;;;;;;;;;;;;;;;9.90;69.79;100120.09;1087112;54;1090;-78
2023/10/15 02:18:35;;;;;;;;;;;;;;;9.93;69.96;100117.13;1087558;54;1030;-79
2023/10/15 02:19:40;;;;;;;;;;;;;;;9.93;69.92;100117.13;1087455;54;1098;-78
2023/10/15 02:20:45;;;;;;;;;;;;;;;9.87;70.04;100117.69;1087498;54;1424;-79
2023/10/15 02:21:52;;;;;;;;;;;;;;;9.88;69.86;100119.38;1087426;47;1067;-79
2023/10/15 02:22:53;;;;;;;;;;;;;;;9.91;69.91;100119.94;1087049;47;1098;-79
2023/10/15 02:24:06;;;;;;;;;;;;;;;9.98;69.65;100121.06;1086888;46;948;-78
2023/10/15 02:25:08;;;;;;;;;;;;;;;9.99;69.32;100111.25;1086344;47;1291;-77
2023/10/15 02:26:11;;;;;;;;;;;;;;;9.95;69.54;100121.38;1086950;54;984;-78
2023/10/15 02:27:17;;;;;;;;;;;;;;;9.99;69.55;100114.75;1087494;46;996;-78
2023/10/15 02:28:23;;;;;;;;;;;;;;;9.98;69.62;100121.06;1087627;54;1081;-78
2023/10/15 02:30:46;;;;;;;;;;;;;;;10.01;69.05;100119.97;1088103;47;1002;-78
2023/10/15 02:31:47;;;;;;;;;;;;;;;9.99;68.85;100117.41;1088170;46;1000;-79
2023/10/15 02:32:53;;;;;;;;;;;;;;;10.05;68.55;100110.69;1088290;47;1139;-78
2023/10/15 02:33:55;;;;;;;;;;;;;;;9.99;68.75;100116.59;1088322;54;1146;-77
2023/10/15 02:35:12;;;;;;;;;;;;;;;10.02;68.50;100116.28;1088323;54;1448;-78
2023/10/15 02:36:16;;;;;;;;;;;;;;;10.04;68.73;100113.50;1088219;54;1036;-78
2023/10/15 02:37:23;;;;;;;;;;;;;;;10.01;68.54;100117.31;1088156;54;1122;-77
2023/10/15 02:38:26;;;;;;;;;;;;;;;9.93;68.52;100115.31;1088223;47;900;-79
2023/10/15 02:39:36;;;;;;;;;;;;;;;10.00;68.33;100118.28;1088040;47;1059;-78
2023/10/15 02:40:37;;;;;;;;;;;;;;;10.02;68.36;100113.63;1087911;47;943;-78
2023/10/15 02:41:41;;;;;;;;;;;;;;;10.09;68.28;100114.78;1087547;54;1055;-78
2023/10/15 02:42:52;;;;;;;;;;;;;;;10.08;68.02;100110.41;1087711;46;964;-78
2023/10/15 02:43:54;;;;;;;;;;;;;;;10.04;68.31;100118.84;1087716;47;1015;-79
2023/10/15 02:44:58;;;;;;;;;;;;;;;10.07;68.05;100118.53;1087827;54;1398;-77
2023/10/15 02:46:00;;;;;;;;;;;;;;;10.15;68.13;100113.38;1087856;54;1150;-78
2023/10/15 02:47:10;;;;;;;;;;;;;;;10.14;67.62;100115.19;1087834;47;1108;-78
2023/10/15 02:48:11;;;;;;;;;;;;;;;10.17;67.70;100114.03;1088319;54;1023;-78
2023/10/15 02:49:25;;;;;;;;;;;;;;;10.20;67.78;100110.28;1088325;46;1011;-78
2023/10/15 02:50:27;;;;;;;;;;;;;;;10.22;67.43;100108.28;1088442;46;1850;-78
2023/10/15 02:51:35;;;;;;;;;;;;;;;10.24;67.39;100109.00;1088295;46;1059;-77
2023/10/15 02:52:43;;;;;;;;;;;;;;;10.23;67.41;100107.31;1088452;54;842;-77
2023/10/15 02:53:52;;;;;;;;;;;;;;;10.23;67.33;100112.66;1088568;54;995;-78
2023/10/15 02:54:52;;;;;;;;;;;;;;;10.21;67.57;100112.78;1088520;54;1284;-78
2023/10/15 02:55:58;;;;;;;;;;;;;;;10.22;67.17;100110.94;1088276;47;954;-79
2023/10/15 02:57:03;;;;;;;;;;;;;;;10.18;67.27;100107.72;1088587;46;1209;-78
2023/10/15 02:58:13;;;;;;;;;;;;;;;10.18;67.31;100106.91;1088410;54;1036;-79
2023/10/15 02:59:16;;;;;;;;;;;;;;;10.14;67.23;100112.50;1088413;54;946;-78
2023/10/15 03:00:28;;;;;;;;;;;;;;;10.12;67.63;100114.47;1088413;54;955;-78
2023/10/15 03:01:29;;;;;;;;;;;;;;;10.09;67.66;100112.09;1088018;54;1016;-78
2023/10/15 03:02:41;;;;;;;;;;;;;;;10.09;67.91;100106.75;1088365;54;1465;-78
2023/10/15 03:03:49;;;;;;;;;;;;;;;10.08;67.85;100110.41;1088468;46;906;-78
2023/10/15 03:04:51;;;;;;;;;;;;;;;10.03;67.77;100104.63;1088088;54;1376;-78
2023/10/15 03:05:57;;;;;;;;;;;;;;;10.06;68.12;100109.69;1087899;54;993;-78
2023/10/15 03:07:16;;;;;;;;;;;;;;;10.09;68.14;100103.22;1087912;54;962;-79
2023/10/15 03:08:20;;;;;;;;;;;;;;;10.04;68.16;100109.00;1087937;54;925;-78
2023/10/15 03:09:21;;;;;;;;;;;;;;;10.06;68.26;100112.38;1088274;54;967;-79
2023/10/15 03:10:24;;;;;;;;;;;;;;;10.06;68.32;100109.69;1087746;47;1882;-79
2023/10/15 03:11:31;;;;;;;;;;;;;;;10.03;68.17;100107.28;1087753;54;1339;-78
2023/10/15 03:12:43;;;;;;;;;;;;;;;10.08;68.51;100113.09;1086548;54;1321;-78
2023/10/15 03:13:53;;;;;;;;;;;;;;;10.06;68.49;100109.69;1086370;47;1161;-78
2023/10/15 03:14:57;;;;;;;;;;;;;;;10.10;68.17;100113.78;1086259;46;1209;-77
2023/10/15 03:15:57;;;;;;;;;;;;;;;10.12;68.34;100111.78;1085808;54;1203;-77
2023/10/15 03:17:01;;;;;;;;;;;;;;;10.06;68.56;100117.72;1085446;47;1464;-77
2023/10/15 03:18:02;;;;;;;;;;;;;;;10.03;68.75;100111.81;1085324;54;1155;-77
2023/10/15 03:19:09;;;;;;;;;;;;;;;10.03;68.72;100117.97;1085067;47;1029;-78
2023/10/15 03:20:26;;;;;;;;;;;;;;;10.04;68.71;100110.81;1087264;46;1185;-78
2023/10/15 03:21:30;;;;;;;;;;;;;;;10.03;68.82;100117.16;1086479;47;999;-78
2023/10/15 03:22:31;;;;;;;;;;;;;;;10.02;68.79;100112.78;1087126;54;1462;-78
2023/10/15 03:23:31;;;;;;;;;;;;;;;9.97;68.88;100114.03;1087160;47;1000;-80
2023/10/15 03:24:44;;;;;;;;;;;;;;;9.96;68.95;100111.50;1086350;47;1086;-80
2023/10/15 03:25:48;;;;;;;;;;;;;;;9.95;69.10;100116.03;1086162;54;1103;-79
2023/10/15 03:26:55;;;;;;;;;;;;;;;9.94;68.95;100116.16;1086936;54;1417;-80
2023/10/15 03:28:00;;;;;;;;;;;;;;;9.92;69.31;100118.13;1086301;54;1464;-79
2023/10/15 03:29:08;;;;;;;;;;;;;;;9.98;69.01;100110.38;1086429;54;1098;-78
2023/10/15 03:30:15;;;;;;;;;;;;;;;9.99;69.21;100112.06;1085729;54;1843;-78
2023/10/15 03:31:16;;;;;;;;;;;;;;;10.01;69.26;100103.09;1086180;47;1060;-80
2023/10/15 03:32:19;;;;;;;;;;;;;;;9.98;69.03;100098.88;1086235;54;1292;-79
2023/10/15 03:33:22;;;;;;;;;;;;;;;10.01;69.20;100100.41;1085937;47;1034;-78
2023/10/15 03:34:23;;;;;;;;;;;;;;;10.01;69.25;100108.44;1085855;47;1016;-79
2023/10/15 03:35:32;;;;;;;;;;;;;;;10.02;69.21;100100.25;1087110;54;1527;-78
2023/10/15 03:36:44;;;;;;;;;;;;;;;10.08;68.97;100102.41;1086039;47;1055;-79
2023/10/15 03:37:58;;;;;;;;;;;;;;;10.05;69.30;100105.34;1085671;54;1079;-77
2023/10/15 03:38:59;;;;;;;;;;;;;;;10.07;69.15;100108.72;1083531;47;1661;-77
2023/10/15 03:40:10;;;;;;;;;;;;;;;10.09;68.98;100108.56;1083873;46;1130;-77
2023/10/15 03:41:21;;;;;;;;;;;;;;;10.11;68.96;100102.09;1083732;47;1112;-77
2023/10/15 03:42:28;;;;;;;;;;;;;;;10.18;68.73;100105.06;1084244;54;1164;-78
2023/10/15 03:43:35;;;;;;;;;;;;;;;10.13;69.16;100113.50;1085728;54;1072;-78
2023/10/15 03:44:36;;;;;;;;;;;;;;;10.08;69.12;100107.75;1085817;47;1688;-79
2023/10/15 03:45:40;;;;;;;;;;;;;;;10.06;69.17;100109.69;1085833;47;1371;-78
2023/10/15 03:46:41;;;;;;;;;;;;;;;10.05;69.47;100110.69;1086224;46;1043;-79
2023/10/15 03:47:46;;;;;;;;;;;;;;;10.05;69.22;100110.69;1085889;47;1162;-78
2023/10/15 03:48:50;;;;;;;;;;;;;;;10.05;69.50;100108.00;1085841;54;1143;-78
2023/10/15 03:49:55;;;;;;;;;;;;;;;10.06;69.54;100101.69;1085321;46;972;-79
2023/10/15 03:50:58;;;;;;;;;;;;;;;10.05;69.73;100105.34;1084807;46;1092;-78
2023/10/15 03:51:58;;;;;;;;;;;;;;;10.08;69.74;100117.56;1085191;47;1490;-78
2023/10/15 03:53:03;;;;;;;;;;;;;;;10.10;69.33;100116.47;1084599;47;1529;-78
2023/10/15 03:54:06;;;;;;;;;;;;;;;10.09;69.56;100106.75;1085479;54;1052;-78
2023/10/15 03:55:10;;;;;;;;;;;;;;;10.04;69.62;100108.16;1085413;54;1390;-78
2023/10/15 03:56:17;;;;;;;;;;;;;;;10.05;69.46;100107.19;1084784;54;1613;-78
2023/10/15 03:57:22;;;;;;;;;;;;;;;10.04;69.85;100108.16;1085175;47;1520;-78
2023/10/15 03:58:23;;;;;;;;;;;;;;;10.07;69.37;100122.06;1086070;54;1301;-77
2023/10/15 03:59:29;;;;;;;;;;;;;;;10.05;69.55;100118.69;1086412;54;1073;-78
2023/10/15 04:00:35;;;;;;;;;;;;;;;10.00;69.61;100118.28;1086009;54;1150;-78
2023/10/15 04:01:47;;;;;;;;;;;;;;;10.02;69.58;100116.28;1085972;46;1095;-76
2023/10/15 04:03:01;;;;;;;;;;;;;;;10.05;69.46;100123.19;1085519;47;1091;-78
2023/10/15 04:04:04;;;;;;;;;;;;;;;9.99;69.75;100122.75;1085873;54;1233;-78
2023/10/15 04:05:08;;;;;;;;;;;;;;;10.01;69.48;100119.97;1085052;47;1236;-77
2023/10/15 04:06:13;;;;;;;;;;;;;;;10.05;69.52;100120.53;1086379;54;1102;-78
2023/10/15 04:07:19;;;;;;;;;;;;;;;10.04;69.51;100116.16;1087099;46;1046;-77
2023/10/15 04:08:25;;;;;;;;;;;;;;;10.00;69.81;100118.28;1087205;47;1049;-78
2023/10/15 04:09:26;;;;;;;;;;;;;;;9.98;69.65;100120.25;1087662;54;996;-78
2023/10/15 04:10:33;;;;;;;;;;;;;;;9.99;69.73;100116.59;1086650;54;1856;-78
2023/10/15 04:11:42;;;;;;;;;;;;;;;10.02;69.69;100115.47;1086268;47;987;-78
2023/10/15 04:12:45;;;;;;;;;;;;;;;10.02;69.79;100121.63;1085885;54;1031;-78
2023/10/15 04:13:46;;;;;;;;;;;;;;;10.02;69.76;100110.94;1086026;54;1200;-78
2023/10/15 04:14:52;;;;;;;;;;;;;;;10.04;69.69;100119.66;1085789;47;1355;-78
2023/10/15 04:15:54;;;;;;;;;;;;;;;10.01;69.80;100114.63;1085828;54;1035;-78
2023/10/15 04:16:57;;;;;;;;;;;;;;;10.01;69.81;100111.09;1087208;54;1027;-78
2023/10/15 04:17:58;;;;;;;;;;;;;;;9.99;70.03;100114.75;1086943;47;986;-77
2023/10/15 04:19:00;;;;;;;;;;;;;;;9.99;69.96;100121.94;1085377;47;1205;-77
2023/10/15 04:20:03;;;;;;;;;;;;;;;10.01;69.88;100109.28;1084498;54;822;-78
2023/10/15 04:21:06;;;;;;;;;;;;;;;10.02;70.07;100112.78;1084525;54;1565;-76
2023/10/15 04:22:13;;;;;;;;;;;;;;;10.02;70.12;100110.94;1084532;47;1042;-78
2023/10/15 04:23:21;;;;;;;;;;;;;;;10.08;69.97;100110.41;1085492;54;1091;-78
2023/10/15 04:24:33;;;;;;;;;;;;;;;10.09;70.01;100114.78;1085647;47;1059;-78
2023/10/15 04:25:36;;;;;;;;;;;;;;;10.11;70.00;100115.44;1085707;54;1334;-77
2023/10/15 04:26:48;;;;;;;;;;;;;;;10.11;69.94;100115.44;1085725;54;1611;-78
2023/10/15 04:27:48;;;;;;;;;;;;;;;10.08;70.14;100107.75;1085661;54;919;-78
2023/10/15 04:28:53;;;;;;;;;;;;;;;10.09;70.12;100112.09;1085590;54;1520;-77
2023/10/15 04:30:00;;;;;;;;;;;;;;;10.08;70.38;100113.09;1085384;47;1145;-78
2023/10/15 04:31:03;;;;;;;;;;;;;;;10.03;70.27;100117.97;1085980;47;1862;-78
2023/10/15 04:32:09;;;;;;;;;;;;;;;10.06;70.30;100123.06;1085531;54;1051;-78
2023/10/15 04:33:13;;;;;;;;;;;;;;;10.04;70.82;100122.34;1085499;54;1578;-78
2023/10/15 04:34:17;;;;;;;;;;;;;;;10.07;70.53;100119.41;1085669;54;1055;-78
2023/10/15 04:35:25;;;;;;;;;;;;;;;10.06;70.52;100117.72;1084902;46;1340;-78
2023/10/15 04:36:26;;;;;;;;;;;;;;;10.05;70.75;100113.34;1086381;54;1044;-78
2023/10/15 04:37:27;;;;;;;;;;;;;;;10.08;70.84;100115.75;1085166;47;1618;-79
2023/10/15 04:38:30;;;;;;;;;;;;;;;10.10;70.83;100108.44;1085795;47;1541;-79
2023/10/15 04:39:31;;;;;;;;;;;;;;;10.08;70.95;100117.56;1084416;54;1431;-78
2023/10/15 04:40:47;;;;;;;;;;;;;;;10.12;71.15;100110.97;1084708;47;1166;-79
2023/10/15 04:41:49;;;;;;;;;;;;;;;10.08;71.57;100114.88;1085403;54;1118;-79
2023/10/15 04:42:53;;;;;;;;;;;;;;;10.04;71.55;100108.16;1085323;47;1597;-78
2023/10/15 04:43:53;;;;;;;;;;;;;;;10.02;72.04;100113.63;1084558;47;1427;-79
2023/10/15 04:44:59;;;;;;;;;;;;;;;9.97;72.08;100108.69;1084816;47;1424;-78
2023/10/15 04:46:02;;;;;;;;;;;;;;;10.01;72.05;100109.28;1085438;47;1609;-78
2023/10/15 04:47:09;;;;;;;;;;;;;;;9.95;72.41;100109.81;1084327;54;1534;-78
2023/10/15 04:48:15;;;;;;;;;;;;;;;10.03;72.53;100117.16;1084260;47;1415;-78
2023/10/15 04:49:19;;;;;;;;;;;;;;;9.92;72.74;100118.13;1084520;47;1672;-78
2023/10/15 04:50:20;;;;;;;;;;;;;;;9.93;73.02;100122.47;1084414;54;1885;-79
2023/10/15 04:51:42;;;;;;;;;;;;;;;9.94;72.67;100118.81;1084632;54;1200;-78
2023/10/15 04:52:43;;;;;;;;;;;;;;;10.00;72.49;100118.28;1084947;54;1090;-79
2023/10/15 04:53:48;;;;;;;;;;;;;;;9.95;73.18;100113.34;1085261;54;1084;-79
2023/10/15 04:54:49;;;;;;;;;;;;;;;9.96;73.07;100122.19;1084892;54;1327;-78
2023/10/15 04:55:50;;;;;;;;;;;;;;;9.93;73.24;100122.47;1085124;47;1046;-77
2023/10/15 04:56:54;;;;;;;;;;;;;;;9.98;73.47;100114.91;1084121;46;1166;-78
2023/10/15 04:57:55;;;;;;;;;;;;;;;10.03;73.43;100114.47;1082648;47;1154;-78
2023/10/15 04:58:58;;;;;;;;;;;;;;;10.08;73.30;100113.09;1084518;47;1209;-79
2023/10/15 05:00:06;;;;;;;;;;;;;;;9.97;73.65;100114.03;1086074;47;1086;-78
2023/10/15 05:01:10;;;;;;;;;;;;;;;9.94;73.83;100118.81;1086632;54;1402;-78
2023/10/15 05:02:11;;;;;;;;;;;;;;;9.98;74.15;100120.25;1085709;47;1094;-79
2023/10/15 05:03:14;;;;;;;;;;;;;;;9.97;74.14;100115.88;1085309;47;1195;-77
2023/10/15 05:04:16;;;;;;;;;;;;;;;9.96;74.11;100123.06;1083995;47;1539;-78
2023/10/15 05:05:17;;;;;;;;;;;;;;;9.94;74.27;100124.16;1084891;54;1367;-77
2023/10/15 05:06:22;;;;;;;;;;;;;;;9.93;74.39;100127.81;1085138;47;2284;-78
2023/10/15 05:07:23;;;;;;;;;;;;;;;9.91;74.85;100129.78;1085024;47;985;-76
2023/10/15 05:08:26;;;;;;;;;;;;;;;9.89;74.92;100126.41;1084181;54;1147;-77
2023/10/15 05:09:31;;;;;;;;;;;;;;;9.84;74.91;100119.66;1084460;54;1042;-77
2023/10/15 05:10:35;;;;;;;;;;;;;;;9.82;75.73;100120.78;1083446;47;1910;-77
2023/10/15 05:11:35;;;;;;;;;;;;;;;9.79;75.89;100121.91;1083701;47;1510;-77
2023/10/15 05:12:39;;;;;;;;;;;;;;;9.81;75.88;100119.94;1083002;47;1530;-77
2023/10/15 05:13:42;;;;;;;;;;;;;;;9.79;75.98;100118.38;1083748;54;1092;-77
2023/10/15 05:14:49;;;;;;;;;;;;;;;9.77;76.34;100120.34;1083897;47;1062;-76
2023/10/15 05:15:52;;;;;;;;;;;;;;;9.78;76.67;100122.88;1083081;47;1532;-77
2023/10/15 05:16:56;;;;;;;;;;;;;;;9.77;76.86;100118.53;1083164;47;1007;-77
2023/10/15 05:17:56;;;;;;;;;;;;;;;9.80;76.92;100112.91;1083173;47;1175;-77
2023/10/15 05:18:58;;;;;;;;;;;;;;;9.77;77.01;100112.34;1083448;54;1099;-77
2023/10/15 05:20:03;;;;;;;;;;;;;;;9.76;77.22;100111.50;1084167;47;1596;-77
2023/10/15 05:21:04;;;;;;;;;;;;;;;9.78;77.50;100109.53;1083718;54;1588;-77
2023/10/15 05:22:08;;;;;;;;;;;;;;;9.75;77.37;100117.81;1083327;54;1261;-77
2023/10/15 05:23:09;;;;;;;;;;;;;;;9.81;77.37;100111.94;1083530;47;1131;-77
2023/10/15 05:24:18;;;;;;;;;;;;;;;9.86;77.28;100105.31;1083140;54;1456;-78
2023/10/15 05:25:19;;;;;;;;;;;;;;;9.84;77.33;100108.97;1084752;47;1578;-78
2023/10/15 05:26:22;;;;;;;;;;;;;;;9.92;76.96;100110.13;1086682;54;1151;-78
2023/10/15 05:27:23;;;;;;;;;;;;;;;9.89;77.14;100105.06;1086797;47;1021;-79
2023/10/15 05:28:26;;;;;;;;;;;;;;;9.96;76.74;100104.38;1086914;54;1066;-78
2023/10/15 05:29:27;;;;;;;;;;;;;;;9.98;77.12;100106.88;1084954;47;991;-78
2023/10/15 05:30:30;;;;;;;;;;;;;;;9.94;76.85;100108.13;1084214;47;1080;-78
2023/10/15 05:31:33;;;;;;;;;;;;;;;9.99;77.01;100104.06;1084745;54;1336;-76
2023/10/15 05:32:36;;;;;;;;;;;;;;;10.04;76.48;100111.66;1084243;47;1112;-78
2023/10/15 05:33:37;;;;;;;;;;;;;;;10.01;76.97;100108.44;1084022;47;992;-77
2023/10/15 05:34:40;;;;;;;;;;;;;;;10.04;76.62;100103.66;1083927;46;1189;-77
2023/10/15 05:35:43;;;;;;;;;;;;;;;10.12;76.67;100111.78;1083536;47;1621;-76
2023/10/15 05:36:46;;;;;;;;;;;;;;;10.13;76.66;100120.66;1083894;47;1059;-77
2023/10/15 05:37:47;;;;;;;;;;;;;;;10.11;76.52;100125.31;1084236;47;1176;-78
2023/10/15 05:38:50;;;;;;;;;;;;;;;10.12;76.37;100125.16;1083918;47;1082;-77
2023/10/15 05:39:51;;;;;;;;;;;;;;;10.13;76.52;100123.34;1085393;47;1193;-77
2023/10/15 05:40:59;;;;;;;;;;;;;;;10.17;76.02;100121.22;1086364;54;1218;-77
2023/10/15 05:41:59;;;;;;;;;;;;;;;10.18;76.04;100118.41;1086507;46;1019;-77